メインページ
METAR-TAF:

METAR-TAF

空港 :

レイキャヴィーク, アイスランド

レイキャヴィーク空港

緯度: 64-08N, 経度: 021-54W, 海抜: 54m

現時点の気象観測

当レポートは53分前の20:00(UTC)に作成
東/南東の風 13kt
気温 1°C
湿度 69%
気圧 994 hPa
視程10km以上
高度3500ftの雲はほとんどない
高度18000ftの千切れ雲あり

METAR: BIRK 112000Z 11013KT 9999 FEW035 BKN180 01/M04 Q0994

時間: 20:53 (20:53 UTC)

予報

当レポートは53分前の20:00(UTC)に作成
予報は11日の 21時(UTC)から 12日の 21時(UTC)まで有効
東/南東の風 18kt、最大28ktの突風を伴う
視程10km以上
高度3000ftの雲はほとんどない
高度5000ftの千切れ雲あり
11日の 21時(UTC)から 11日の 23時(UTC)まで一時的に
視程: 3000m
高度1200ftの曇り
小雪
確率 40% :
11日の 22時(UTC)から 11日の 24時(UTC)まで一時的に
視程: 2000m
高度1000ftの曇り
雪, 雨
11日の 21時(UTC)から 11日の 24時(UTC)まで徐々に
南東の風 28kt、最大38ktの突風を伴う
高度1500ftの千切れ雲あり
高度2500ftの曇り
12日の 0700時(UTC)から
南/南東の風 15kt
高度1500ftの雲はほとんどない
高度3000ftの千切れ雲あり
にわか雨

TAF: BIRK 112000Z 1121/1221 12018G28KT 9999 FEW030 BKN050 TX04/1205Z TNM00/1121Z TEMPO 1121/1123 3000 -SN OVC012 PROB40 TEMPO 1122/1124 2000 SNRA OVC010 BECMG 1121/1124 13028G38KT RA BKN015 OVC025 FM120700 16015KT SHRA FEW015 BKN030

4,000以上の空港の気象観測と天気予報(METAR報とTAF報)

利用可能な観測所は地図上に黄色い丸と赤い丸で示す。

丸の上にカーソルを重ねると観測所名を参照できる。

次にクリックすると気象観測と天気予報を参照できる。

マップの切り替え:黒色「×」印の緑ボタンをクリックして拡大、「-」印の緑ボタンをクリックして縮小、緑色の三角印をクリックして隣りの地図に切り替え


METAR-TAF: